createdAt,value
2022-11-10T00:01:22.622Z,36.35
2022-11-10T00:06:24.032Z,37.22
2022-11-10T00:11:25.678Z,29.15
2022-11-10T00:16:45.810Z,35.30
2022-11-10T00:21:47.250Z,34.50
2022-11-10T00:26:49.504Z,31.58
2022-11-10T00:31:51.220Z,33.22
2022-11-10T00:36:52.677Z,34.22
2022-11-10T00:41:54.439Z,35.08
2022-11-10T00:46:55.890Z,36.80
2022-11-10T00:51:57.334Z,37.90
2022-11-10T00:56:58.825Z,31.15
2022-11-10T01:02:00.304Z,33.88
2022-11-10T01:07:01.826Z,34.22
2022-11-10T01:12:03.554Z,31.05
2022-11-10T01:17:05.067Z,31.30
2022-11-10T01:22:06.466Z,30.13
2022-11-10T01:27:07.863Z,32.42
2022-11-10T01:32:09.303Z,30.55
2022-11-10T01:37:12.111Z,34.72
2022-11-10T01:42:13.860Z,34.17
2022-11-10T01:47:15.294Z,29.33
2022-11-10T01:52:16.703Z,32.05
2022-11-10T01:57:18.431Z,31.30
2022-11-10T02:02:47.711Z,29.92
2022-11-10T02:07:51.680Z,29.17
2022-11-10T02:12:53.123Z,31.13
2022-11-10T02:17:54.555Z,28.45
2022-11-10T02:22:56.041Z,28.20
2022-11-10T02:27:57.574Z,30.52
2022-11-10T02:32:59.050Z,26.83
2022-11-10T02:38:00.548Z,28.75
2022-11-10T02:43:06.460Z,29.05
2022-11-10T02:48:09.026Z,27.40
2022-11-10T02:53:10.472Z,27.73
2022-11-10T02:58:12.119Z,28.50
2022-11-10T03:03:13.532Z,26.83
2022-11-10T03:08:14.961Z,31.65
2022-11-10T03:13:16.370Z,26.88
2022-11-10T03:18:18.116Z,27.85
2022-11-10T03:23:20.006Z,29.20
2022-11-10T03:28:21.740Z,29.70
2022-11-10T03:33:23.606Z,25.27
2022-11-10T03:38:25.155Z,29.20
2022-11-10T03:43:26.572Z,25.17
2022-11-10T03:48:28.003Z,24.98
2022-11-10T03:53:29.452Z,25.48
2022-11-10T03:58:31.260Z,26.10
2022-11-10T04:03:32.908Z,25.20
2022-11-10T04:08:53.034Z,24.92
2022-11-10T04:14:12.868Z,22.45
2022-11-10T04:19:14.667Z,20.88
2022-11-10T04:24:16.366Z,22.42
2022-11-10T04:29:19.796Z,21.02
2022-11-10T04:34:21.255Z,23.15
2022-11-10T04:39:22.696Z,22.98
2022-11-10T04:44:24.372Z,21.10
2022-11-10T04:49:25.847Z,21.02
2022-11-10T04:54:27.378Z,21.88
2022-11-10T04:59:28.798Z,19.13
2022-11-10T05:04:30.201Z,19.00
2022-11-10T05:09:31.634Z,18.42
2022-11-10T05:14:33.050Z,20.98
2022-11-10T05:19:34.463Z,16.60
2022-11-10T05:24:35.877Z,17.20
2022-11-10T05:29:37.287Z,16.25
2022-11-10T05:34:38.752Z,19.33
2022-11-10T05:39:40.397Z,16.83
2022-11-10T05:44:41.805Z,20.00
2022-11-10T05:49:43.225Z,15.57
2022-11-10T05:54:44.635Z,18.45
2022-11-10T05:59:46.077Z,18.27
2022-11-10T06:04:47.486Z,17.98
2022-11-10T06:09:48.899Z,16.95
2022-11-10T06:14:51.071Z,16.20
2022-11-10T06:19:52.509Z,17.65
2022-11-10T06:24:53.926Z,16.73
2022-11-10T06:29:55.411Z,14.77
2022-11-10T06:35:00.523Z,14.90
2022-11-10T06:40:02.301Z,15.00
2022-11-10T06:45:04.202Z,13.30
2022-11-10T06:50:06.015Z,13.00
2022-11-10T06:55:07.935Z,12.57
2022-11-10T07:00:10.286Z,13.93
2022-11-10T07:05:12.259Z,11.02
2022-11-10T07:10:14.831Z,13.05
2022-11-10T07:15:16.232Z,10.57
2022-11-10T07:20:17.735Z,11.85
2022-11-10T07:25:19.179Z,12.30
2022-11-10T07:30:20.657Z,11.05
2022-11-10T07:35:22.130Z,12.27
2022-11-10T07:40:24.073Z,10.40
2022-11-10T07:45:26.144Z,10.10
2022-11-10T07:50:28.364Z,9.82
2022-11-10T07:55:29.827Z,8.40
2022-11-10T08:00:31.839Z,9.50
2022-11-10T08:05:34.261Z,9.27
2022-11-10T08:10:36.497Z,10.85
2022-11-10T08:15:38.914Z,9.25
2022-11-10T08:20:40.328Z,7.82
2022-11-10T08:25:42.285Z,8.18
2022-11-10T08:30:46.322Z,9.00
2022-11-10T08:35:50.004Z,9.52
2022-11-10T08:40:51.499Z,12.40
2022-11-10T08:45:56.938Z,10.90
2022-11-10T08:51:00.135Z,7.93
2022-11-10T08:56:01.543Z,8.38
2022-11-10T09:01:07.314Z,8.30
2022-11-10T09:06:08.756Z,8.05
2022-11-10T09:11:10.210Z,10.25
2022-11-10T09:16:11.660Z,5.53
2022-11-10T09:21:13.159Z,4.68
2022-11-10T09:26:14.630Z,8.18
2022-11-10T09:31:16.093Z,5.75
2022-11-10T09:36:17.742Z,5.15
2022-11-10T09:41:19.236Z,6.85
2022-11-10T09:46:37.853Z,5.70
2022-11-10T09:51:47.939Z,4.47
2022-11-10T09:56:53.498Z,6.88
2022-11-10T10:02:12.739Z,5.70
2022-11-10T10:07:30.764Z,5.70
2022-11-10T10:13:06.314Z,6.93
2022-11-10T10:18:07.684Z,4.82
2022-11-10T10:23:40.702Z,7.63
2022-11-10T10:28:47.400Z,5.68
2022-11-10T10:33:49.277Z,5.00
2022-11-10T10:38:54.262Z,6.15
2022-11-10T10:43:58.915Z,4.75
2022-11-10T10:49:31.060Z,5.57
2022-11-10T10:54:35.755Z,4.60
2022-11-10T10:59:37.232Z,4.95
2022-11-10T11:04:38.641Z,6.35
2022-11-10T11:09:43.425Z,7.25
2022-11-10T11:14:46.324Z,4.65
2022-11-10T11:19:57.099Z,3.47
2022-11-10T11:25:15.959Z,5.93
2022-11-10T11:30:20.343Z,6.63
2022-11-10T11:35:34.136Z,4.63
2022-11-10T11:41:06.446Z,5.72
2022-11-10T11:46:10.737Z,8.20
2022-11-10T11:51:31.561Z,6.22
2022-11-10T11:56:39.276Z,3.42
2022-11-10T12:02:04.814Z,8.07
2022-11-10T12:07:23.591Z,4.63
2022-11-10T12:12:40.223Z,8.95
2022-11-10T12:18:19.007Z,6.10
2022-11-10T12:28:44.291Z,5.80
2022-11-10T12:33:50.387Z,4.88
2022-11-10T12:39:12.324Z,5.63
2022-11-10T12:44:36.449Z,4.78
2022-11-10T12:49:41.598Z,7.15
2022-11-10T12:54:45.638Z,7.70
2022-11-10T13:00:06.881Z,12.75
2022-11-10T13:05:14.339Z,12.05
2022-11-10T13:10:18.510Z,5.70
2022-11-10T13:15:37.945Z,5.13
2022-11-10T13:20:39.336Z,7.00
2022-11-10T13:26:00.167Z,8.40
2022-11-10T13:31:27.568Z,6.25
2022-11-10T13:36:43.763Z,7.15
2022-11-10T13:42:01.124Z,10.05
2022-11-10T13:47:08.316Z,10.52
2022-11-10T13:52:37.744Z,6.07
2022-11-10T13:57:41.543Z,5.00
2022-11-10T14:02:50.463Z,5.95
2022-11-10T14:07:54.435Z,6.55
2022-11-10T14:13:05.676Z,10.95
2022-11-10T14:18:25.671Z,4.82
2022-11-10T14:23:47.446Z,5.00
2022-11-10T14:28:48.865Z,7.65
2022-11-10T14:33:56.051Z,4.93
2022-11-10T14:38:58.205Z,4.72
2022-11-10T14:44:05.369Z,3.95
2022-11-10T14:49:10.765Z,5.82
2022-11-10T14:54:16.983Z,5.78
2022-11-10T14:59:20.196Z,6.75
2022-11-10T15:04:31.805Z,4.97
2022-11-10T15:09:33.517Z,6.13
2022-11-10T15:14:39.406Z,9.02
2022-11-10T15:19:46.712Z,7.00
2022-11-10T15:24:51.568Z,8.75
2022-11-10T15:29:54.210Z,11.13
2022-11-10T15:35:27.490Z,10.27
2022-11-10T15:40:31.833Z,8.20
2022-11-10T15:45:33.324Z,11.85
2022-11-10T15:50:34.817Z,9.90
2022-11-10T15:55:36.272Z,8.85
2022-11-10T16:00:38.049Z,7.07
2022-11-10T16:05:41.073Z,8.18
2022-11-10T16:10:45.899Z,9.90
2022-11-10T16:15:47.858Z,12.63
2022-11-10T16:20:50.874Z,8.35
2022-11-10T16:25:55.495Z,22.48
2022-11-10T16:30:56.908Z,24.20
2022-11-10T16:35:59.927Z,48.25
2022-11-10T16:41:03.539Z,15.23
2022-11-10T16:46:14.995Z,32.70
2022-11-10T16:51:17.998Z,57.90
2022-11-10T16:56:21.015Z,22.95
2022-11-10T17:01:26.308Z,24.75
2022-11-10T17:06:29.618Z,18.58
2022-11-10T17:11:31.024Z,18.30
2022-11-10T17:16:37.635Z,18.20
2022-11-10T17:21:39.178Z,18.70
2022-11-10T17:26:41.127Z,17.77
2022-11-10T17:31:42.815Z,18.10
2022-11-10T17:36:44.441Z,17.15
2022-11-10T17:41:45.839Z,14.25
2022-11-10T17:46:47.437Z,18.60
2022-11-10T17:51:49.022Z,20.63
2022-11-10T17:56:50.421Z,25.95
2022-11-10T18:01:51.833Z,36.63
2022-11-10T18:06:53.387Z,28.85
2022-11-10T18:11:54.820Z,32.25
2022-11-10T18:16:56.284Z,32.38
2022-11-10T18:21:57.686Z,28.98
2022-11-10T18:26:59.140Z,28.42
2022-11-10T18:32:00.585Z,25.55
2022-11-10T18:37:02.023Z,25.40
2022-11-10T18:42:03.959Z,21.58
2022-11-10T18:47:12.167Z,20.52
2022-11-10T18:52:13.636Z,21.83
2022-11-10T18:57:16.664Z,19.27
2022-11-10T19:02:18.205Z,22.65
2022-11-10T19:07:19.759Z,23.15
2022-11-10T19:12:26.405Z,23.40
2022-11-10T19:17:28.304Z,24.85
2022-11-10T19:22:30.060Z,23.90
2022-11-10T19:27:31.466Z,24.35
2022-11-10T19:32:33.221Z,23.90
2022-11-10T19:37:35.030Z,30.38
2022-11-10T19:42:36.437Z,32.28
2022-11-10T19:47:37.850Z,37.78
2022-11-10T19:52:39.272Z,34.88
2022-11-10T19:57:40.707Z,33.47
2022-11-10T20:02:45.602Z,35.65
2022-11-10T20:08:09.712Z,32.17
2022-11-10T20:13:11.939Z,27.85
2022-11-10T20:18:13.554Z,28.25
2022-11-10T20:23:16.094Z,31.30
2022-11-10T20:28:17.494Z,27.95
2022-11-10T20:33:18.919Z,26.85
2022-11-10T20:38:20.452Z,29.15
2022-11-10T20:43:22.266Z,32.22
2022-11-10T20:48:23.945Z,36.05
2022-11-10T20:53:26.107Z,36.38
2022-11-10T20:58:28.626Z,32.58
2022-11-10T21:03:31.188Z,34.70
2022-11-10T21:08:33.089Z,36.15
2022-11-10T21:13:34.910Z,42.80
2022-11-10T21:18:37.059Z,34.55
2022-11-10T21:23:39.503Z,33.47
2022-11-10T21:28:40.901Z,38.30
2022-11-10T21:33:42.307Z,36.05
2022-11-10T21:38:47.119Z,31.90
2022-11-10T21:43:48.587Z,30.15
2022-11-10T21:48:50.902Z,33.13
2022-11-10T21:53:52.302Z,36.95
2022-11-10T21:58:53.702Z,39.42
2022-11-10T22:03:55.154Z,42.28
2022-11-10T22:08:56.621Z,40.08
2022-11-10T22:14:16.730Z,34.92
2022-11-10T22:19:18.333Z,33.90
2022-11-10T22:24:28.607Z,33.47
2022-11-10T22:29:32.434Z,32.30
2022-11-10T22:34:33.885Z,31.88
2022-11-10T22:39:53.998Z,38.55
2022-11-10T22:44:55.421Z,37.47
2022-11-10T22:49:56.829Z,40.60
2022-11-10T22:54:58.413Z,33.78
2022-11-10T22:59:59.838Z,32.38
2022-11-10T23:05:01.311Z,35.42
2022-11-10T23:10:02.891Z,30.58
2022-11-10T23:15:04.456Z,30.30
2022-11-10T23:20:06.417Z,31.00
2022-11-10T23:25:08.098Z,35.15
2022-11-10T23:30:10.083Z,34.03
2022-11-10T23:35:11.525Z,30.58
2022-11-10T23:40:13.314Z,26.58
2022-11-10T23:45:14.723Z,28.00
2022-11-10T23:50:16.319Z,29.63
2022-11-10T23:55:17.980Z,27.00
